Time;durP1;ratioP1;P1;durP2;ratioP2;P2;SDS_P1;SDS_P2;PMS_P1;PMS_P2;Temp;Humidity;BMP_temperature;BMP_pressure;BME280_temperature;BME280_humidity;BME280_pressure;Samples;Min_cycle;Max_cycle;Signal;HPM_P1;HPM_P2
2023/05/14 00:00:21;;;;;;;12.38;6.18;;;;;;;;;;6212381;23;20036;-79
2023/05/14 00:02:47;;;;;;;15.50;6.60;;;;;;;;;;6187812;23;20470;-80
2023/05/14 00:05:12;;;;;;;14.93;6.28;;;;;;;;;;6213942;23;20059;-78
2023/05/14 00:07:38;;;;;;;15.00;6.78;;;;;;;;;;6212209;23;20411;-78
2023/05/14 00:10:04;;;;;;;10.55;6.10;;;;;;;;;;6212403;23;20001;-80
2023/05/14 00:12:29;;;;;;;16.15;6.65;;;;;;;;;;6212400;23;20004;-79
2023/05/14 00:14:55;;;;;;;13.07;6.25;;;;;;;;;;6212538;23;20008;-79
2023/05/14 00:17:21;;;;;;;13.60;6.65;;;;;;;;;;6212445;23;20063;-79
2023/05/14 00:19:46;;;;;;;16.80;7.03;;;;;;;;;;6213173;23;20000;-79
2023/05/14 00:22:11;;;;;;;12.63;6.15;;;;;;;;;;6212620;23;20077;-79
2023/05/14 00:24:37;;;;;;;11.85;6.80;;;;;;;;;;6212729;23;20005;-79
2023/05/14 00:27:03;;;;;;;16.85;7.00;;;;;;;;;;6213190;23;20004;-78
2023/05/14 00:29:28;;;;;;;14.52;6.60;;;;;;;;;;6187573;23;20440;-78
2023/05/14 00:31:53;;;;;;;11.30;6.88;;;;;;;;;;6212136;23;20039;-79
2023/05/14 00:34:19;;;;;;;14.05;6.88;;;;;;;;;;6213997;23;19996;-78
2023/05/14 00:36:44;;;;;;;13.85;7.25;;;;;;;;;;6187205;23;20004;-78
2023/05/14 00:39:10;;;;;;;22.92;8.15;;;;;;;;;;6213575;23;20011;-78
2023/05/14 00:41:35;;;;;;;16.52;6.80;;;;;;;;;;6212848;23;20444;-80
2023/05/14 00:44:01;;;;;;;14.48;7.75;;;;;;;;;;6213890;23;20079;-77
2023/05/14 00:46:26;;;;;;;13.18;7.60;;;;;;;;;;6214001;23;20011;-77
2023/05/14 00:48:52;;;;;;;17.05;8.60;;;;;;;;;;6213467;23;20507;-77
2023/05/14 00:51:17;;;;;;;19.77;9.00;;;;;;;;;;6212368;23;20001;-77
2023/05/14 00:53:44;;;;;;;27.45;10.15;;;;;;;;;;6212507;23;20015;-77
2023/05/14 00:56:09;;;;;;;17.67;9.82;;;;;;;;;;6186796;23;20001;-77
2023/05/14 00:58:35;;;;;;;17.95;9.60;;;;;;;;;;6211900;23;20005;-79
2023/05/14 01:01:00;;;;;;;19.55;10.23;;;;;;;;;;6213523;23;20459;-78
2023/05/14 01:03:25;;;;;;;26.30;10.40;;;;;;;;;;6186927;23;20087;-79
2023/05/14 01:06:17;;;;;;;22.08;10.15;;;;;;;;;;6213496;23;20313;-78
2023/05/14 01:08:52;;;;;;;22.77;10.35;;;;;;;;;;6211743;23;20008;-79
2023/05/14 01:11:58;;;;;;;22.42;10.60;;;;;;;;;;6211844;23;20012;-79
2023/05/14 01:14:26;;;;;;;25.92;10.75;;;;;;;;;;6154152;23;20004;-79
2023/05/14 01:16:54;;;;;;;22.30;10.40;;;;;;;;;;6213412;23;20008;-79
2023/05/14 01:19:41;;;;;;;26.88;10.55;;;;;;;;;;6187344;23;20064;-79
2023/05/14 01:22:06;;;;;;;30.55;10.98;;;;;;;;;;6186805;23;20012;-79
2023/05/14 01:24:32;;;;;;;26.17;11.50;;;;;;;;;;6186419;23;20058;-79
2023/05/14 01:27:07;;;;;;;25.65;11.65;;;;;;;;;;6213250;23;20004;-79
2023/05/14 01:29:32;;;;;;;32.95;13.77;;;;;;;;;;6212528;23;20036;-79
2023/05/14 01:31:58;;;;;;;32.63;14.73;;;;;;;;;;6213355;23;20424;-79
2023/05/14 01:34:23;;;;;;;29.08;14.90;;;;;;;;;;6212079;23;20000;-80
2023/05/14 01:36:49;;;;;;;33.85;15.02;;;;;;;;;;6186752;23;20004;-79
2023/05/14 01:39:14;;;;;;;33.60;16.08;;;;;;;;;;6211355;23;20070;-79
2023/05/14 01:41:41;;;;;;;29.60;15.00;;;;;;;;;;6162168;23;20112;-79
2023/05/14 01:44:07;;;;;;;37.10;14.60;;;;;;;;;;6211794;23;20329;-79
2023/05/14 01:46:33;;;;;;;27.55;13.80;;;;;;;;;;6211677;23;20000;-80
2023/05/14 01:48:59;;;;;;;27.73;13.68;;;;;;;;;;6211825;23;20432;-79
2023/05/14 01:51:24;;;;;;;27.48;13.10;;;;;;;;;;6213244;23;20435;-78
2023/05/14 01:53:50;;;;;;;24.70;11.85;;;;;;;;;;6188350;23;20012;-79
2023/05/14 01:56:16;;;;;;;27.95;11.95;;;;;;;;;;6188776;23;20001;-79
2023/05/14 01:58:42;;;;;;;27.33;11.80;;;;;;;;;;6188658;23;20004;-79
2023/05/14 02:01:07;;;;;;;29.50;12.77;;;;;;;;;;6188462;23;20107;-79
2023/05/14 02:03:33;;;;;;;21.73;11.25;;;;;;;;;;6213379;23;20012;-79
2023/05/14 02:05:59;;;;;;;27.75;11.27;;;;;;;;;;6215418;23;20000;-79
2023/05/14 02:08:24;;;;;;;20.08;10.38;;;;;;;;;;6214632;23;20457;-79
2023/05/14 02:10:50;;;;;;;22.67;10.27;;;;;;;;;;6215255;23;20011;-78
2023/05/14 02:13:15;;;;;;;22.35;10.02;;;;;;;;;;6215071;23;20011;-80
2023/05/14 02:15:41;;;;;;;23.50;10.18;;;;;;;;;;6163600;23;20008;-79
2023/05/14 02:18:06;;;;;;;24.52;10.30;;;;;;;;;;6214994;23;20051;-80
2023/05/14 02:20:32;;;;;;;24.30;10.13;;;;;;;;;;6188703;23;20055;-80
2023/05/14 02:22:58;;;;;;;23.40;10.77;;;;;;;;;;6188117;23;20017;-80
2023/05/14 02:25:24;;;;;;;18.35;9.95;;;;;;;;;;6163627;23;20005;-79
2023/05/14 02:27:49;;;;;;;21.45;9.82;;;;;;;;;;6188262;23;20434;-78
2023/05/14 02:30:15;;;;;;;22.63;10.23;;;;;;;;;;6215256;23;20000;-79
2023/05/14 02:32:40;;;;;;;19.70;10.18;;;;;;;;;;6213381;23;20484;-79
2023/05/14 02:35:06;;;;;;;32.67;10.82;;;;;;;;;;6188269;23;20084;-78
2023/05/14 02:37:31;;;;;;;24.25;10.07;;;;;;;;;;6188127;23;20005;-78
2023/05/14 02:39:57;;;;;;;22.63;10.63;;;;;;;;;;6213521;23;20001;-78
2023/05/14 02:42:22;;;;;;;22.13;10.32;;;;;;;;;;6214800;23;20001;-78
2023/05/14 02:44:48;;;;;;;23.65;11.10;;;;;;;;;;6213134;23;20005;-78
2023/05/14 02:47:13;;;;;;;23.98;10.73;;;;;;;;;;6214602;23;20073;-78
2023/05/14 02:49:39;;;;;;;23.00;10.05;;;;;;;;;;6213210;23;20424;-78
2023/05/14 02:52:05;;;;;;;24.73;10.50;;;;;;;;;;6214716;23;20001;-78
2023/05/14 02:54:30;;;;;;;20.13;10.48;;;;;;;;;;6215310;23;20027;-78
2023/05/14 02:56:56;;;;;;;28.08;10.52;;;;;;;;;;6214480;23;20004;-78
2023/05/14 02:59:22;;;;;;;25.23;10.15;;;;;;;;;;6214814;23;20004;-78
2023/05/14 03:01:48;;;;;;;25.95;10.35;;;;;;;;;;6214549;23;20011;-79
2023/05/14 03:04:13;;;;;;;21.45;10.32;;;;;;;;;;6214176;23;20004;-78
2023/05/14 03:06:39;;;;;;;27.08;10.65;;;;;;;;;;6214326;23;20058;-78
2023/05/14 03:09:04;;;;;;;29.58;10.95;;;;;;;;;;6214657;23;20008;-78
2023/05/14 03:11:30;;;;;;;28.55;11.13;;;;;;;;;;6213125;23;20007;-77
2023/05/14 03:13:55;;;;;;;30.52;10.35;;;;;;;;;;6188073;23;20001;-78
2023/05/14 03:16:20;;;;;;;20.85;10.80;;;;;;;;;;6213203;23;20001;-78
2023/05/14 03:18:46;;;;;;;24.15;11.48;;;;;;;;;;6213080;23;20078;-77
2023/05/14 03:21:11;;;;;;;24.30;11.70;;;;;;;;;;6214234;23;20438;-79
2023/05/14 03:23:37;;;;;;;30.67;12.18;;;;;;;;;;6188325;23;20005;-79
2023/05/14 03:26:03;;;;;;;28.92;13.48;;;;;;;;;;6214804;23;19997;-79
2023/05/14 03:28:29;;;;;;;30.27;13.65;;;;;;;;;;6214471;23;20428;-79
2023/05/14 03:30:54;;;;;;;35.17;14.25;;;;;;;;;;6214593;23;20003;-79
2023/05/14 03:33:20;;;;;;;37.67;15.13;;;;;;;;;;6213268;23;20348;-80
2023/05/14 03:35:45;;;;;;;32.22;14.02;;;;;;;;;;6162749;23;20344;-78
2023/05/14 03:38:11;;;;;;;38.97;15.60;;;;;;;;;;6213285;23;20440;-77
2023/05/14 03:40:36;;;;;;;34.10;15.60;;;;;;;;;;6163269;23;20391;-78
2023/05/14 03:43:01;;;;;;;36.65;16.40;;;;;;;;;;6187772;23;20012;-77
2023/05/14 03:45:29;;;;;;;35.45;15.70;;;;;;;;;;6214499;23;20007;-78
2023/05/14 03:47:54;;;;;;;38.13;15.02;;;;;;;;;;6214511;23;20012;-78
2023/05/14 03:50:20;;;;;;;33.88;15.65;;;;;;;;;;6212787;23;20094;-78
2023/05/14 03:52:45;;;;;;;33.00;14.35;;;;;;;;;;6212673;23;20008;-77
2023/05/14 03:55:10;;;;;;;33.22;13.68;;;;;;;;;;6187696;23;20000;-78
2023/05/14 03:57:36;;;;;;;28.13;11.95;;;;;;;;;;6187914;23;20022;-80
2023/05/14 04:00:05;;;;;;;27.35;12.02;;;;;;;;;;6212965;23;20000;-79
2023/05/14 04:02:30;;;;;;;28.88;12.65;;;;;;;;;;6212174;23;20015;-78
2023/05/14 04:04:56;;;;;;;28.35;12.25;;;;;;;;;;6212852;23;19997;-79
2023/05/14 04:07:21;;;;;;;30.15;12.25;;;;;;;;;;6213830;23;20009;-80
2023/05/14 04:09:47;;;;;;;32.42;12.80;;;;;;;;;;6163049;23;20000;-79
2023/05/14 04:12:12;;;;;;;35.10;12.55;;;;;;;;;;6212490;23;20090;-79
2023/05/14 04:14:37;;;;;;;25.83;12.02;;;;;;;;;;6187742;23;20004;-80
2023/05/14 04:17:03;;;;;;;33.17;12.32;;;;;;;;;;6162546;23;20013;-79
2023/05/14 04:19:28;;;;;;;24.65;12.07;;;;;;;;;;6213877;23;20413;-77
2023/05/14 04:21:54;;;;;;;32.97;11.90;;;;;;;;;;6187672;23;20071;-78
2023/05/14 04:24:19;;;;;;;28.45;12.20;;;;;;;;;;6212539;23;20489;-79
2023/05/14 04:26:45;;;;;;;27.75;11.15;;;;;;;;;;6212228;23;20004;-79
2023/05/14 04:29:12;;;;;;;22.98;10.63;;;;;;;;;;6162292;23;20001;-79
2023/05/14 04:31:37;;;;;;;29.55;11.65;;;;;;;;;;6211691;23;20008;-79
2023/05/14 04:34:03;;;;;;;24.52;11.43;;;;;;;;;;6212245;23;20051;-79
2023/05/14 04:36:28;;;;;;;27.35;11.93;;;;;;;;;;6212353;23;20015;-79
2023/05/14 04:38:53;;;;;;;32.63;12.15;;;;;;;;;;6213833;23;20001;-79
2023/05/14 04:41:19;;;;;;;26.10;11.45;;;;;;;;;;6212613;23;20008;-79
2023/05/14 04:43:45;;;;;;;24.58;11.43;;;;;;;;;;6163202;23;20016;-80
2023/05/14 04:46:12;;;;;;;24.65;11.32;;;;;;;;;;6212037;23;20009;-80
2023/05/14 04:48:38;;;;;;;33.58;12.40;;;;;;;;;;6214462;23;20099;-78
2023/05/14 04:51:03;;;;;;;29.67;12.32;;;;;;;;;;6212150;23;20422;-79
2023/05/14 04:53:29;;;;;;;30.27;13.27;;;;;;;;;;6212181;23;20072;-79
2023/05/14 04:55:54;;;;;;;27.65;12.60;;;;;;;;;;6212247;23;20005;-78
2023/05/14 04:58:20;;;;;;;33.00;13.18;;;;;;;;;;6212545;23;20047;-79
2023/05/14 05:00:45;;;;;;;29.80;13.63;;;;;;;;;;6213395;23;20379;-77
2023/05/14 05:03:11;;;;;;;36.25;13.70;;;;;;;;;;6212630;23;20026;-78
2023/05/14 05:05:36;;;;;;;38.50;15.10;;;;;;;;;;6212061;23;20075;-78
2023/05/14 05:08:02;;;;;;;33.80;14.45;;;;;;;;;;6187058;23;20180;-78
2023/05/14 05:10:27;;;;;;;35.88;15.00;;;;;;;;;;6187498;23;20043;-79
2023/05/14 05:12:53;;;;;;;33.40;14.57;;;;;;;;;;6186990;23;20007;-79
2023/05/14 05:15:18;;;;;;;33.20;14.18;;;;;;;;;;6186972;23;20011;-79
2023/05/14 05:17:44;;;;;;;35.42;14.50;;;;;;;;;;6213558;23;20075;-78
2023/05/14 05:20:10;;;;;;;35.33;15.27;;;;;;;;;;6212064;23;20059;-78
2023/05/14 05:22:36;;;;;;;36.13;15.73;;;;;;;;;;6214112;23;20059;-77
2023/05/14 05:25:05;;;;;;;38.92;16.95;;;;;;;;;;6212342;23;20343;-78
2023/05/14 05:27:31;;;;;;;37.50;16.02;;;;;;;;;;6189180;23;20044;-78
2023/05/14 05:29:56;;;;;;;38.92;16.05;;;;;;;;;;6215768;23;20008;-78
2023/05/14 05:32:22;;;;;;;41.55;16.85;;;;;;;;;;6189073;23;20004;-78
2023/05/14 05:34:47;;;;;;;45.85;19.00;;;;;;;;;;6214240;23;20008;-78
2023/05/14 05:37:13;;;;;;;41.25;18.17;;;;;;;;;;6189471;23;20008;-78
2023/05/14 05:39:39;;;;;;;41.67;19.35;;;;;;;;;;6214595;23;20074;-78
2023/05/14 05:42:05;;;;;;;52.42;18.65;;;;;;;;;;6215785;23;20014;-79
2023/05/14 05:44:30;;;;;;;42.13;18.45;;;;;;;;;;6215399;23;20004;-79
2023/05/14 05:46:56;;;;;;;47.20;17.83;;;;;;;;;;6214162;23;20005;-79
2023/05/14 05:49:21;;;;;;;41.88;17.60;;;;;;;;;;6189525;23;20034;-79
2023/05/14 05:51:47;;;;;;;45.28;18.33;;;;;;;;;;6214635;23;20032;-79
2023/05/14 05:54:13;;;;;;;41.20;18.63;;;;;;;;;;6214401;23;20366;-80
2023/05/14 05:56:38;;;;;;;42.17;17.85;;;;;;;;;;6216378;23;20008;-80
2023/05/14 05:59:04;;;;;;;49.20;18.17;;;;;;;;;;6215566;23;20005;-80
2023/05/14 06:01:29;;;;;;;48.70;19.30;;;;;;;;;;6214082;23;20416;-80
2023/05/14 06:03:55;;;;;;;47.75;19.38;;;;;;;;;;6189206;23;20007;-80
2023/05/14 06:06:21;;;;;;;41.13;18.55;;;;;;;;;;6214130;23;20011;-80
2023/05/14 06:08:46;;;;;;;47.40;19.80;;;;;;;;;;6214113;23;20345;-80
2023/05/14 06:11:12;;;;;;;45.03;19.23;;;;;;;;;;6215517;23;20451;-80
2023/05/14 06:13:37;;;;;;;42.50;18.52;;;;;;;;;;6213595;23;20329;-77
2023/05/14 06:16:03;;;;;;;47.58;19.75;;;;;;;;;;6214337;23;20005;-79
2023/05/14 06:18:28;;;;;;;44.70;19.55;;;;;;;;;;6214394;23;20011;-78
2023/05/14 06:20:55;;;;;;;48.92;20.00;;;;;;;;;;6215248;23;20044;-80
2023/05/14 06:23:21;;;;;;;48.03;19.83;;;;;;;;;;6164873;23;20001;-79
2023/05/14 06:25:48;;;;;;;44.30;20.15;;;;;;;;;;6189127;23;20373;-79
2023/05/14 06:28:14;;;;;;;53.33;20.15;;;;;;;;;;6215193;23;20004;-79
2023/05/14 06:30:39;;;;;;;52.20;21.25;;;;;;;;;;6215668;23;20027;-79
2023/05/14 06:33:05;;;;;;;47.35;19.77;;;;;;;;;;6189000;23;20359;-79
2023/05/14 06:35:30;;;;;;;42.58;19.83;;;;;;;;;;6213795;23;20013;-77
2023/05/14 06:37:56;;;;;;;55.42;21.60;;;;;;;;;;6213975;23;20007;-79
2023/05/14 06:40:21;;;;;;;51.90;19.60;;;;;;;;;;6188771;23;20428;-78
2023/05/14 06:42:47;;;;;;;50.17;20.75;;;;;;;;;;6214810;23;20638;-78
2023/05/14 06:45:12;;;;;;;43.22;18.55;;;;;;;;;;6214048;23;20371;-78
2023/05/14 06:47:37;;;;;;;50.80;19.67;;;;;;;;;;6213477;23;20000;-79
2023/05/14 06:50:03;;;;;;;42.25;18.17;;;;;;;;;;6162539;23;20008;-80
2023/05/14 06:52:29;;;;;;;40.38;17.30;;;;;;;;;;6213144;23;20428;-79
2023/05/14 06:54:54;;;;;;;48.40;18.83;;;;;;;;;;6211856;23;20004;-80
2023/05/14 06:57:20;;;;;;;42.70;18.20;;;;;;;;;;6211538;23;20043;-79
2023/05/14 06:59:45;;;;;;;43.17;19.10;;;;;;;;;;6212078;23;20503;-80
2023/05/14 07:02:11;;;;;;;49.75;19.00;;;;;;;;;;6213446;23;20000;-79
2023/05/14 07:04:36;;;;;;;45.17;17.77;;;;;;;;;;6211639;23;20416;-80
2023/05/14 07:07:02;;;;;;;42.72;17.58;;;;;;;;;;6161895;23;20213;-80
2023/05/14 07:09:27;;;;;;;45.05;18.33;;;;;;;;;;6214634;23;20479;-78
2023/05/14 07:11:52;;;;;;;58.72;18.63;;;;;;;;;;6214598;23;20043;-78
2023/05/14 07:14:18;;;;;;;49.92;19.73;;;;;;;;;;6213833;23;20044;-78
2023/05/14 07:16:45;;;;;;;48.45;17.92;;;;;;;;;;6213963;23;20012;-77
2023/05/14 07:19:11;;;;;;;46.25;19.67;;;;;;;;;;6213533;23;20320;-78
2023/05/14 07:21:36;;;;;;;42.67;18.10;;;;;;;;;;6188396;23;20001;-78
2023/05/14 07:24:01;;;;;;;59.70;19.35;;;;;;;;;;6188339;23;20004;-78
2023/05/14 07:26:27;;;;;;;47.15;18.90;;;;;;;;;;6212884;23;20032;-77
2023/05/14 07:28:52;;;;;;;42.83;17.20;;;;;;;;;;6214864;23;20007;-77
2023/05/14 07:31:18;;;;;;;41.40;19.23;;;;;;;;;;6214611;23;20355;-77
2023/05/14 07:33:43;;;;;;;49.22;19.75;;;;;;;;;;6214667;23;20007;-77
2023/05/14 07:36:09;;;;;;;43.95;18.17;;;;;;;;;;6213386;23;20067;-77
2023/05/14 07:38:34;;;;;;;46.33;19.58;;;;;;;;;;6188113;23;20492;-77
2023/05/14 07:41:00;;;;;;;45.20;18.80;;;;;;;;;;6187771;23;20051;-77
2023/05/14 07:43:25;;;;;;;40.70;18.73;;;;;;;;;;6187703;23;20004;-78
2023/05/14 07:45:50;;;;;;;40.40;17.25;;;;;;;;;;6214239;23;20008;-77
2023/05/14 07:48:16;;;;;;;45.13;17.92;;;;;;;;;;6214501;23;20005;-78
2023/05/14 07:50:41;;;;;;;38.05;17.45;;;;;;;;;;6188313;23;20005;-77
2023/05/14 07:53:07;;;;;;;43.13;17.65;;;;;;;;;;6216046;23;20002;-78
2023/05/14 07:55:32;;;;;;;46.50;20.13;;;;;;;;;;6217877;23;20343;-79
2023/05/14 07:57:58;;;;;;;48.65;19.17;;;;;;;;;;6220272;23;20020;-78
2023/05/14 08:00:23;;;;;;;46.88;19.15;;;;;;;;;;6193100;23;20055;-79
2023/05/14 08:02:49;;;;;;;44.85;19.17;;;;;;;;;;6218658;23;20009;-78
2023/05/14 08:05:14;;;;;;;45.33;17.75;;;;;;;;;;6219308;23;20004;-78
2023/05/14 08:07:40;;;;;;;47.78;19.10;;;;;;;;;;6212456;23;20428;-78
2023/05/14 08:10:06;;;;;;;46.88;19.15;;;;;;;;;;6213773;23;20076;-78
2023/05/14 08:12:32;;;;;;;45.55;19.33;;;;;;;;;;6212504;23;20395;-78
2023/05/14 08:14:57;;;;;;;52.47;20.45;;;;;;;;;;6187480;23;20096;-78
2023/05/14 08:17:23;;;;;;;43.03;19.23;;;;;;;;;;6187301;23;20008;-78
2023/05/14 08:19:48;;;;;;;49.75;19.98;;;;;;;;;;6187234;23;20289;-78
2023/05/14 08:22:14;;;;;;;49.13;19.65;;;;;;;;;;6212260;23;20010;-78
2023/05/14 08:24:41;;;;;;;43.85;18.27;;;;;;;;;;6162016;23;20005;-78
2023/05/14 08:27:07;;;;;;;47.72;19.67;;;;;;;;;;6212549;23;20004;-78
2023/05/14 08:29:32;;;;;;;40.90;18.88;;;;;;;;;;6187478;23;20439;-78
2023/05/14 08:31:57;;;;;;;41.75;19.48;;;;;;;;;;6211953;23;20086;-77
2023/05/14 08:34:23;;;;;;;44.67;20.25;;;;;;;;;;6187148;23;20355;-77
2023/05/14 08:36:48;;;;;;;46.47;21.38;;;;;;;;;;6162365;23;20375;-76
2023/05/14 08:39:14;;;;;;;45.40;20.10;;;;;;;;;;6210150;23;20008;-76
2023/05/14 08:41:39;;;;;;;48.42;18.83;;;;;;;;;;6185219;23;20008;-77
2023/05/14 08:44:12;;;;;;;43.10;17.65;;;;;;;;;;6209983;23;20004;-77
2023/05/14 08:46:38;;;;;;;38.88;16.40;;;;;;;;;;6184977;23;20001;-76
2023/05/14 08:49:17;;;;;;;49.67;18.08;;;;;;;;;;6210096;23;20383;-77
2023/05/14 08:51:48;;;;;;;38.65;17.48;;;;;;;;;;6185748;23;20120;-77
2023/05/14 08:54:18;;;;;;;39.92;17.00;;;;;;;;;;6187203;23;20071;-78
2023/05/14 08:56:47;;;;;;;34.08;15.80;;;;;;;;;;6162433;23;20007;-78
2023/05/14 08:59:12;;;;;;;37.53;15.93;;;;;;;;;;6213372;23;20082;-77
2023/05/14 09:01:40;;;;;;;33.97;16.05;;;;;;;;;;6212440;23;20464;-78
2023/05/14 09:04:07;;;;;;;37.05;16.65;;;;;;;;;;6213549;23;20007;-78
2023/05/14 09:06:36;;;;;;;40.17;16.65;;;;;;;;;;6212085;23;20082;-78
2023/05/14 09:09:01;;;;;;;38.80;14.98;;;;;;;;;;6187003;23;20086;-78
2023/05/14 09:11:30;;;;;;;31.50;15.25;;;;;;;;;;6187181;23;20004;-78
2023/05/14 09:13:55;;;;;;;31.33;15.45;;;;;;;;;;6187182;23;20005;-78
2023/05/14 09:16:21;;;;;;;35.53;15.80;;;;;;;;;;6212037;23;20007;-78
2023/05/14 09:18:46;;;;;;;37.35;16.60;;;;;;;;;;6212056;23;20043;-78
2023/05/14 09:21:15;;;;;;;34.85;15.50;;;;;;;;;;6187086;23;20346;-78
2023/05/14 09:23:44;;;;;;;36.03;16.63;;;;;;;;;;6212113;23;20009;-77
2023/05/14 09:26:10;;;;;;;35.03;16.02;;;;;;;;;;6186925;23;20347;-78
2023/05/14 09:28:39;;;;;;;35.00;16.75;;;;;;;;;;6213807;23;20115;-78
2023/05/14 09:31:05;;;;;;;42.75;17.90;;;;;;;;;;6187664;23;19997;-76
2023/05/14 09:33:31;;;;;;;40.35;17.45;;;;;;;;;;6162662;23;20466;-76
2023/05/14 09:36:00;;;;;;;38.47;17.25;;;;;;;;;;6186956;23;20329;-77
2023/05/14 09:38:30;;;;;;;37.42;17.42;;;;;;;;;;6211941;23;20139;-76
2023/05/14 09:40:56;;;;;;;41.53;18.00;;;;;;;;;;6187068;23;20005;-76
2023/05/14 09:43:21;;;;;;;36.78;17.52;;;;;;;;;;6211852;23;20007;-76
2023/05/14 09:45:47;;;;;;;36.78;17.60;;;;;;;;;;6211792;23;20079;-77
2023/05/14 09:48:12;;;;;;;34.08;17.00;;;;;;;;;;6213867;23;20100;-78
2023/05/14 09:50:44;;;;;;;34.45;16.33;;;;;;;;;;6186558;23;20011;-78
2023/05/14 09:53:10;;;;;;;42.60;16.35;;;;;;;;;;6212148;23;20340;-78
2023/05/14 09:55:36;;;;;;;38.20;16.05;;;;;;;;;;6211843;23;20004;-78
2023/05/14 09:58:01;;;;;;;38.72;17.30;;;;;;;;;;6186947;23;20079;-78
2023/05/14 10:00:27;;;;;;;41.00;17.77;;;;;;;;;;6213634;23;20100;-78
2023/05/14 10:02:53;;;;;;;42.05;17.40;;;;;;;;;;6187349;23;20001;-78
2023/05/14 10:05:19;;;;;;;41.85;18.17;;;;;;;;;;6186709;23;20321;-78
2023/05/14 10:07:48;;;;;;;38.33;17.70;;;;;;;;;;6210656;23;20424;-75
2023/05/14 10:10:20;;;;;;;42.70;18.95;;;;;;;;;;6185752;23;20004;-75
2023/05/14 10:12:56;;;;;;;41.90;17.13;;;;;;;;;;6210752;23;20012;-75
2023/05/14 10:15:35;;;;;;;36.97;17.00;;;;;;;;;;6162823;23;20347;-76
2023/05/14 10:18:03;;;;;;;32.90;16.85;;;;;;;;;;6210957;23;20008;-77
2023/05/14 10:20:28;;;;;;;39.25;17.17;;;;;;;;;;6185747;23;19997;-76
2023/05/14 10:22:54;;;;;;;32.97;15.77;;;;;;;;;;6211475;23;20007;-76
2023/05/14 10:25:19;;;;;;;31.90;16.42;;;;;;;;;;6210781;23;20004;-76
2023/05/14 10:27:45;;;;;;;38.35;17.08;;;;;;;;;;6210651;23;20422;-76
2023/05/14 10:30:11;;;;;;;42.28;15.07;;;;;;;;;;6210507;23;20428;-76
2023/05/14 10:32:37;;;;;;;34.38;16.88;;;;;;;;;;6161903;23;20066;-76
2023/05/14 10:35:19;;;;;;;35.20;14.63;;;;;;;;;;6186268;23;20374;-76
2023/05/14 10:37:45;;;;;;;40.20;16.50;;;;;;;;;;6164481;23;20013;-76
2023/05/14 10:40:11;;;;;;;31.92;15.57;;;;;;;;;;6213288;23;20123;-76
2023/05/14 10:42:42;;;;;;;33.40;16.58;;;;;;;;;;6213571;23;20075;-76
2023/05/14 10:45:09;;;;;;;29.20;15.48;;;;;;;;;;6214699;23;19993;-76
2023/05/14 10:47:35;;;;;;;32.05;16.17;;;;;;;;;;6213152;23;20016;-77
2023/05/14 10:50:02;;;;;;;28.35;15.05;;;;;;;;;;6213131;23;20439;-77
2023/05/14 10:52:28;;;;;;;27.52;14.52;;;;;;;;;;6213607;23;20000;-76
2023/05/14 10:55:01;;;;;;;34.17;15.88;;;;;;;;;;6188468;23;20074;-75
2023/05/14 10:57:28;;;;;;;29.27;15.02;;;;;;;;;;6190115;23;20000;-78
2023/05/14 10:59:58;;;;;;;29.40;14.90;;;;;;;;;;6188279;23;20005;-77
2023/05/14 11:02:31;;;;;;;;;;;;;;;;;;6188408;23;20062;-78
2023/05/14 11:05:02;;;;;;;25.98;14.63;;;;;;;;;;6212831;23;19957;-77
2023/05/14 11:07:29;;;;;;;38.45;16.10;;;;;;;;;;6213230;23;20013;-78
2023/05/14 11:10:07;;;;;;;30.15;14.32;;;;;;;;;;6214443;23;20010;-77
2023/05/14 11:12:33;;;;;;;31.48;16.75;;;;;;;;;;6189779;23;20424;-78
2023/05/14 11:14:59;;;;;;;32.97;15.55;;;;;;;;;;6188155;23;20332;-78
2023/05/14 11:17:25;;;;;;;30.35;15.90;;;;;;;;;;6187745;23;20262;-77
2023/05/14 11:19:51;;;;;;;35.00;16.02;;;;;;;;;;6214025;23;20032;-77
2023/05/14 11:22:16;;;;;;;34.08;17.25;;;;;;;;;;6214526;23;20054;-77
2023/05/14 11:24:42;;;;;;;28.95;15.40;;;;;;;;;;6214017;23;20001;-77
2023/05/14 11:27:08;;;;;;;31.80;16.73;;;;;;;;;;6212685;23;20007;-78
2023/05/14 11:29:35;;;;;;;32.88;16.52;;;;;;;;;;6212815;23;20079;-77
2023/05/14 11:32:04;;;;;;;37.00;16.38;;;;;;;;;;6212332;23;19996;-77
2023/05/14 11:34:29;;;;;;;33.42;16.00;;;;;;;;;;6188371;23;20028;-78
2023/05/14 11:36:55;;;;;;;35.17;17.27;;;;;;;;;;6213016;23;20051;-78
2023/05/14 11:39:20;;;;;;;30.50;16.13;;;;;;;;;;6214546;23;20027;-78
2023/05/14 11:41:46;;;;;;;33.35;16.50;;;;;;;;;;6187851;23;20356;-75
2023/05/14 11:44:11;;;;;;;33.90;16.92;;;;;;;;;;6214326;23;20348;-78
2023/05/14 11:46:36;;;;;;;31.35;16.98;;;;;;;;;;6213782;23;19997;-77
2023/05/14 11:49:05;;;;;;;31.50;16.23;;;;;;;;;;6213926;23;20004;-78
2023/05/14 11:51:31;;;;;;;34.67;17.05;;;;;;;;;;6214029;23;20091;-78
2023/05/14 11:53:57;;;;;;;37.83;17.67;;;;;;;;;;6214016;23;20001;-78
2023/05/14 11:56:23;;;;;;;37.53;17.15;;;;;;;;;;6213892;23;20004;-76
2023/05/14 11:58:48;;;;;;;31.80;16.23;;;;;;;;;;6212632;23;20328;-76
2023/05/14 12:01:14;;;;;;;30.50;16.33;;;;;;;;;;6213845;23;20004;-76
2023/05/14 12:03:39;;;;;;;33.25;15.70;;;;;;;;;;6212592;23;20058;-77
2023/05/14 12:06:06;;;;;;;32.15;17.23;;;;;;;;;;6212367;23;20011;-77
2023/05/14 12:08:32;;;;;;;38.10;17.20;;;;;;;;;;6212099;23;20040;-76
2023/05/14 12:10:58;;;;;;;31.05;16.52;;;;;;;;;;6212544;23;20471;-76
2023/05/14 12:13:28;;;;;;;35.33;17.27;;;;;;;;;;6212373;23;20084;-77
2023/05/14 12:15:55;;;;;;;33.40;17.20;;;;;;;;;;6187275;23;20091;-77
2023/05/14 12:18:21;;;;;;;35.38;17.20;;;;;;;;;;6212652;23;20059;-77
2023/05/14 12:20:47;;;;;;;33.35;16.15;;;;;;;;;;6212272;23;20032;-77
2023/05/14 12:23:12;;;;;;;30.13;16.38;;;;;;;;;;6212441;23;20447;-77
2023/05/14 12:25:38;;;;;;;33.53;15.95;;;;;;;;;;6187188;23;20004;-77
2023/05/14 12:28:16;;;;;;;33.53;16.30;;;;;;;;;;6187032;23;20004;-77
2023/05/14 12:30:41;;;;;;;41.17;16.92;;;;;;;;;;6213666;23;20009;-77
2023/05/14 12:33:07;;;;;;;34.72;15.98;;;;;;;;;;6213954;23;20082;-77
2023/05/14 12:35:32;;;;;;;35.72;17.48;;;;;;;;;;6213397;23;20028;-76
2023/05/14 12:37:57;;;;;;;31.73;16.45;;;;;;;;;;6187377;23;20016;-78
2023/05/14 12:40:23;;;;;;;36.47;16.15;;;;;;;;;;6213647;23;20083;-77
2023/05/14 12:42:49;;;;;;;32.75;16.42;;;;;;;;;;6214345;23;20324;-78
2023/05/14 12:45:14;;;;;;;29.65;15.65;;;;;;;;;;6186596;23;20004;-78
2023/05/14 12:47:40;;;;;;;28.75;15.18;;;;;;;;;;6162344;23;20011;-78
2023/05/14 12:50:06;;;;;;;29.85;15.68;;;;;;;;;;6213635;23;20005;-78
2023/05/14 12:52:31;;;;;;;36.70;16.10;;;;;;;;;;6213724;23;20716;-78
2023/05/14 12:54:57;;;;;;;30.98;14.73;;;;;;;;;;6212669;23;20009;-79
2023/05/14 12:57:22;;;;;;;32.33;15.80;;;;;;;;;;6212189;23;20016;-77
2023/05/14 12:59:48;;;;;;;26.55;14.05;;;;;;;;;;6213086;23;20071;-78
2023/05/14 13:02:15;;;;;;;31.38;14.98;;;;;;;;;;6213824;23;20092;-75
2023/05/14 13:04:40;;;;;;;25.77;13.05;;;;;;;;;;6213419;23;20339;-78
2023/05/14 13:07:07;;;;;;;28.83;14.18;;;;;;;;;;6186738;23;20011;-76
2023/05/14 13:09:33;;;;;;;27.42;13.82;;;;;;;;;;6213179;23;20028;-77
2023/05/14 13:11:58;;;;;;;27.15;13.93;;;;;;;;;;6211915;23;20005;-76
2023/05/14 13:14:23;;;;;;;26.63;14.10;;;;;;;;;;6213310;23;20005;-76
2023/05/14 13:16:49;;;;;;;25.35;14.02;;;;;;;;;;6213259;23;20013;-80
2023/05/14 13:19:14;;;;;;;29.92;13.90;;;;;;;;;;6212545;23;20379;-78
2023/05/14 13:21:40;;;;;;;30.60;13.68;;;;;;;;;;6211704;23;20382;-78
2023/05/14 13:24:05;;;;;;;28.33;13.50;;;;;;;;;;6187400;23;20058;-78
2023/05/14 13:26:31;;;;;;;31.08;13.90;;;;;;;;;;6213149;23;20328;-77
2023/05/14 13:28:56;;;;;;;27.08;13.40;;;;;;;;;;6212041;23;20008;-78
2023/05/14 13:31:21;;;;;;;25.83;12.98;;;;;;;;;;6212167;23;20012;-78
2023/05/14 13:33:47;;;;;;;25.33;13.18;;;;;;;;;;6211760;23;20004;-78
2023/05/14 13:36:13;;;;;;;29.98;14.07;;;;;;;;;;6211743;23;20364;-78
2023/05/14 13:38:38;;;;;;;31.65;15.13;;;;;;;;;;6212146;23;20004;-78
2023/05/14 13:41:04;;;;;;;27.15;14.30;;;;;;;;;;6212133;23;20289;-78
2023/05/14 13:43:30;;;;;;;29.73;15.23;;;;;;;;;;6211497;23;20073;-78
2023/05/14 13:45:56;;;;;;;32.17;14.30;;;;;;;;;;6213220;23;20009;-79
2023/05/14 13:48:21;;;;;;;30.40;15.80;;;;;;;;;;6213104;23;20008;-75
2023/05/14 13:50:47;;;;;;;32.13;15.77;;;;;;;;;;6213654;23;20009;-76
2023/05/14 13:53:12;;;;;;;28.70;14.80;;;;;;;;;;6214020;23;20000;-77
2023/05/14 13:55:38;;;;;;;30.33;14.20;;;;;;;;;;6213588;23;20078;-77
2023/05/14 13:58:03;;;;;;;27.25;14.65;;;;;;;;;;6215702;23;20008;-78
2023/05/14 14:00:29;;;;;;;31.50;15.27;;;;;;;;;;6188699;23;19996;-78
2023/05/14 14:02:54;;;;;;;27.75;13.93;;;;;;;;;;6215249;23;20380;-78
2023/05/14 14:05:20;;;;;;;33.35;14.75;;;;;;;;;;6215051;23;20067;-78
2023/05/14 14:07:45;;;;;;;30.40;15.90;;;;;;;;;;6215175;23;20019;-78
2023/05/14 14:10:11;;;;;;;30.67;15.98;;;;;;;;;;6215192;23;20083;-79
2023/05/14 14:12:36;;;;;;;37.97;17.33;;;;;;;;;;6215107;23;20059;-76